Time;durP1;ratioP1;P1;durP2;ratioP2;P2;SDS_P1;SDS_P2;PMS_P1;PMS_P2;Temp;Humidity;BMP_temperature;BMP_pressure;BME280_temperature;BME280_humidity;BME280_pressure;Samples;Min_cycle;Max_cycle;Signal;HPM_P1;HPM_P2
2021/08/25 00:01:05;;;;;;;12.05;10.13;;;15.10;82.90;;;15.45;62.82;98267.38;5025668;28;20476;-37
2021/08/25 00:03:33;;;;;;;14.02;10.98;;;15.10;82.10;;;15.43;62.92;98265.88;5024061;28;20041;-37
2021/08/25 00:06:01;;;;;;;13.32;10.48;;;15.10;82.30;;;15.40;62.96;98267.06;5025641;28;20340;-37
2021/08/25 00:08:29;;;;;;;14.20;11.73;;;15.00;82.30;;;15.38;63.05;98270.94;5024349;28;20064;-37
2021/08/25 00:10:57;;;;;;;12.77;10.50;;;15.10;82.50;;;15.34;63.02;98271.28;5026321;28;20255;-37
2021/08/25 00:13:25;;;;;;;12.15;10.30;;;15.00;82.50;;;15.33;63.14;98260.72;5024433;28;20057;-37
2021/08/25 00:15:53;;;;;;;11.88;10.23;;;15.00;82.70;;;15.31;63.45;98266.25;5025900;28;20053;-37
2021/08/25 00:18:21;;;;;;;13.85;10.45;;;15.00;82.70;;;15.30;63.23;98255.72;5026519;28;20252;-37
2021/08/25 00:20:49;;;;;;;13.88;10.02;;;15.00;82.90;;;15.30;63.39;98250.38;5024495;28;20071;-37
2021/08/25 00:23:17;;;;;;;15.25;11.18;;;15.00;83.10;;;15.27;63.20;98243.50;5024776;28;20057;-37
2021/08/25 00:25:44;;;;;;;12.40;10.55;;;14.90;83.00;;;15.24;63.35;98235.81;5025572;28;20083;-37
2021/08/25 00:28:12;;;;;;;14.35;11.68;;;14.90;83.20;;;15.21;63.45;98232.66;5024573;28;20056;-37
2021/08/25 00:30:40;;;;;;;13.73;10.68;;;14.90;83.30;;;15.19;63.52;98237.34;5023708;28;20057;-37
2021/08/25 00:33:08;;;;;;;18.17;11.35;;;14.80;83.40;;;15.18;63.86;98227.63;5022769;28;20060;-37
2021/08/25 00:35:36;;;;;;;13.68;11.68;;;14.80;83.40;;;15.14;63.67;98233.34;5023956;28;20076;-37
2021/08/25 00:38:04;;;;;;;13.98;10.48;;;14.80;83.50;;;15.11;63.65;98230.19;5024047;28;20344;-37
2021/08/25 00:40:32;;;;;;;11.95;10.45;;;14.70;83.80;;;15.08;63.53;98234.06;5022918;28;20252;-37
2021/08/25 00:43:08;;;;;;;16.05;11.05;;;14.70;83.80;;;15.06;63.60;98227.19;5023409;28;20059;-45
2021/08/25 00:45:43;;;;;;;12.65;10.88;;;14.70;83.90;;;15.05;63.78;98228.22;5025755;28;20048;-36
2021/08/25 00:48:17;;;;;;;12.93;10.32;;;14.70;84.10;;;15.02;63.66;98224.00;5025121;28;20045;-36
2021/08/25 00:50:50;;;;;;;16.67;11.70;;;14.70;84.20;;;14.95;63.78;98234.63;5024856;28;20053;-36
2021/08/25 00:53:22;;;;;;;12.77;10.70;;;14.60;84.40;;;14.94;63.89;98230.25;5025688;28;20756;-36
2021/08/25 00:56:06;;;;;;;14.10;10.98;;;14.60;84.20;;;14.91;63.96;98233.31;5024998;28;20128;-36
2021/08/25 00:58:40;;;;;;;12.95;10.43;;;14.60;84.10;;;14.88;63.91;98233.63;5025114;28;20053;-36
2021/08/25 01:01:32;;;;;;;14.40;11.23;;;14.50;84.30;;;14.85;63.80;98231.31;5023194;28;20263;-36
2021/08/25 01:04:07;;;;;;;14.07;10.90;;;14.50;84.50;;;14.85;64.03;98225.09;5024565;28;20045;-36
2021/08/25 01:06:36;;;;;;;15.02;10.05;;;14.50;84.70;;;14.83;64.28;98224.44;5025060;28;20052;-36
2021/08/25 01:09:04;;;;;;;14.23;10.65;;;14.50;84.80;;;14.76;64.37;98214.44;5023224;28;20360;-36
2021/08/25 01:11:34;;;;;;;14.10;11.90;;;14.40;85.00;;;14.75;64.46;98220.81;5025273;28;20065;-36
2021/08/25 01:14:02;;;;;;;12.85;10.27;;;14.50;85.40;;;14.72;64.50;98210.44;5023680;28;20067;-36
2021/08/25 01:16:31;;;;;;;13.85;11.27;;;14.40;85.10;;;14.70;64.53;98209.75;5025089;28;20064;-36
2021/08/25 01:18:59;;;;;;;13.63;11.07;;;14.40;85.10;;;14.70;64.43;98208.94;5023398;28;20231;-36
2021/08/25 01:21:28;;;;;;;11.75;9.82;;;14.40;85.00;;;14.70;64.34;98206.25;5023660;28;20067;-36
2021/08/25 01:23:57;;;;;;;14.50;11.07;;;14.30;84.90;;;14.66;64.39;98199.56;5023483;28;20045;-36
2021/08/25 01:26:25;;;;;;;13.52;9.93;;;14.30;85.00;;;14.61;64.30;98192.03;5025188;28;20370;-36
2021/08/25 01:28:56;;;;;;;12.13;10.25;;;14.20;85.00;;;14.60;64.43;98194.88;5023889;28;20049;-36
2021/08/25 01:31:27;;;;;;;17.83;11.82;;;14.30;85.20;;;14.60;64.40;98193.06;5022768;28;20049;-36
2021/08/25 01:34:06;;;;;;;15.95;10.50;;;14.30;85.00;;;14.61;64.56;98191.22;5024818;28;20060;-36
2021/08/25 01:36:35;;;;;;;12.98;10.30;;;14.30;85.20;;;14.59;64.62;98185.19;5023947;28;20057;-36
2021/08/25 01:39:03;;;;;;;12.88;9.82;;;14.30;84.90;;;14.57;64.39;98191.53;5006515;28;20059;-36
2021/08/25 01:41:31;;;;;;;13.50;9.90;;;14.20;84.90;;;14.54;64.43;98193.72;5024332;28;20057;-36
2021/08/25 01:44:02;;;;;;;13.82;10.60;;;14.20;84.80;;;14.51;64.22;98199.41;5024889;28;20057;-36
2021/08/25 01:46:37;;;;;;;15.02;11.38;;;14.10;84.70;;;14.43;64.48;98200.28;5029569;28;20052;-36
2021/08/25 01:49:14;;;;;;;13.18;11.20;;;14.10;85.50;;;14.40;64.38;98203.28;5028569;28;20061;-36
2021/08/25 01:51:42;;;;;;;12.55;9.95;;;14.00;85.60;;;14.40;64.75;98207.81;5027974;28;20344;-36
2021/08/25 01:54:13;;;;;;;13.52;10.35;;;14.00;85.50;;;14.37;64.74;98199.13;5026510;28;20067;-36
2021/08/25 01:56:42;;;;;;;12.95;9.98;;;14.00;85.60;;;14.37;64.74;98203.66;5029799;28;20065;-36
2021/08/25 01:59:09;;;;;;;12.52;10.82;;;14.00;85.50;;;14.35;64.64;98201.13;5027897;28;20064;-36
2021/08/25 02:01:37;;;;;;;13.57;9.88;;;14.00;85.20;;;14.35;64.58;98197.63;5028664;28;20048;-36
2021/08/25 02:04:06;;;;;;;16.48;11.13;;;14.00;85.30;;;14.32;64.68;98196.13;5029482;28;20068;-36
2021/08/25 02:06:34;;;;;;;12.57;9.85;;;14.00;85.30;;;14.29;64.68;98199.16;5043764;28;20068;-36
2021/08/25 02:09:02;;;;;;;13.98;10.85;;;14.00;85.50;;;14.29;64.78;98196.47;5027941;28;20049;-36
2021/08/25 02:11:30;;;;;;;12.70;10.27;;;14.00;85.30;;;14.29;64.72;98190.28;5028157;28;20394;-36
2021/08/25 02:13:57;;;;;;;12.57;9.73;;;14.00;85.20;;;14.27;64.65;98194.97;5028073;28;20428;-36
2021/08/25 02:16:25;;;;;;;12.57;10.02;;;14.00;85.00;;;14.26;64.72;98187.94;5026723;28;20042;-36
2021/08/25 02:18:53;;;;;;;15.15;11.82;;;14.00;84.90;;;14.24;64.84;98193.47;5028096;28;20041;-36
2021/08/25 02:21:22;;;;;;;13.65;10.93;;;13.90;85.00;;;14.21;64.79;98191.16;5026421;28;20060;-36
2021/08/25 02:23:50;;;;;;;16.67;10.48;;;13.90;85.30;;;14.18;64.78;98186.94;5026320;28;20055;-36
2021/08/25 02:26:18;;;;;;;13.63;10.48;;;13.80;85.10;;;14.17;64.86;98187.97;5027958;28;20053;-36
2021/08/25 02:28:49;;;;;;;11.20;8.88;;;13.90;85.40;;;14.17;64.80;98189.78;5027535;28;20061;-36
2021/08/25 02:31:17;;;;;;;13.75;10.07;;;13.80;85.10;;;14.13;64.73;98183.97;5026784;28;20347;-36
2021/08/25 02:33:46;;;;;;;12.93;9.40;;;13.80;85.10;;;14.11;64.70;98188.66;5026635;28;20041;-36
2021/08/25 02:36:17;;;;;;;12.57;9.45;;;13.80;85.10;;;14.09;64.83;98189.81;5027154;28;20049;-36
2021/08/25 02:38:46;;;;;;;13.82;9.77;;;13.80;85.30;;;14.06;64.85;98188.31;5026425;28;20049;-36
2021/08/25 02:41:17;;;;;;;11.90;10.07;;;13.70;85.10;;;14.02;64.79;98178.97;5026745;28;20060;-36
2021/08/25 02:43:45;;;;;;;13.77;11.23;;;13.60;85.80;;;13.99;65.09;98176.63;5028626;28;20045;-36
2021/08/25 02:46:14;;;;;;;12.80;10.07;;;13.60;86.10;;;13.99;65.22;98173.94;5026456;28;20072;-37
2021/08/25 02:48:42;;;;;;;12.02;10.38;;;13.70;86.40;;;13.99;65.33;98165.91;5026725;28;20248;-36
2021/08/25 02:51:10;;;;;;;13.27;10.80;;;13.70;86.30;;;13.99;65.20;98165.91;5026861;28;20072;-36
2021/08/25 02:53:38;;;;;;;12.90;9.88;;;13.70;86.30;;;13.96;65.27;98164.41;5026884;28;20387;-36
2021/08/25 02:56:07;;;;;;;14.55;10.75;;;13.60;86.10;;;13.92;65.09;98160.41;5025899;28;20053;-36
2021/08/25 02:58:35;;;;;;;12.10;10.07;;;13.50;86.30;;;13.91;65.18;98163.25;5026742;28;20064;-36
2021/08/25 03:01:02;;;;;;;16.83;10.48;;;13.50;86.50;;;13.88;65.25;98164.44;5027716;28;20312;-36
2021/08/25 03:03:31;;;;;;;12.63;10.10;;;13.50;86.60;;;13.86;65.25;98160.22;5026116;28;20358;-36
2021/08/25 03:05:59;;;;;;;15.27;11.20;;;13.50;86.80;;;13.83;65.26;98155.25;5027668;28;20404;-36
2021/08/25 03:08:27;;;;;;;15.27;12.80;;;13.50;86.80;;;13.82;65.46;98159.72;5026216;28;20362;-36
2021/08/25 03:10:55;;;;;;;13.88;10.77;;;13.50;86.70;;;13.79;65.22;98154.75;5026172;28;20061;-36
2021/08/25 03:13:23;;;;;;;14.27;11.05;;;13.40;86.50;;;13.76;65.47;98150.56;5026469;28;20076;-36
2021/08/25 03:15:51;;;;;;;14.18;10.75;;;13.40;87.10;;;13.73;65.58;98148.22;5026237;28;20351;-36
2021/08/25 03:18:19;;;;;;;13.95;10.95;;;13.40;87.20;;;13.73;65.69;98147.41;5026433;28;20064;-36
2021/08/25 03:20:46;;;;;;;14.80;11.35;;;13.40;87.40;;;13.69;65.62;98133.50;5025609;28;20360;-36
2021/08/25 03:23:14;;;;;;;12.85;10.02;;;13.30;87.50;;;13.69;65.69;98144.22;5024964;28;20057;-36
2021/08/25 03:25:42;;;;;;;15.65;11.05;;;13.30;87.40;;;13.69;65.80;98136.19;5026035;28;20060;-36
2021/08/25 03:28:10;;;;;;;13.77;12.32;;;13.40;87.50;;;13.70;65.79;98137.84;5026034;28;20065;-36
2021/08/25 03:30:38;;;;;;;15.63;13.60;;;13.40;87.40;;;13.71;65.87;98142.22;5026112;28;20056;-36
2021/08/25 03:33:06;;;;;;;14.35;12.48;;;13.40;87.30;;;13.71;65.74;98138.69;5025939;28;20244;-36
2021/08/25 03:35:34;;;;;;;14.73;11.90;;;13.40;87.20;;;13.69;65.80;98138.88;5027244;28;20402;-36
2021/08/25 03:38:02;;;;;;;13.85;11.20;;;13.40;87.30;;;13.69;65.85;98140.72;5025074;28;20053;-36
2021/08/25 03:40:30;;;;;;;14.05;10.63;;;13.40;87.20;;;13.68;65.93;98137.19;5026362;28;20048;-36
2021/08/25 03:42:58;;;;;;;19.35;12.85;;;13.40;87.20;;;13.68;65.77;98134.50;5026837;28;20412;-36
2021/08/25 03:45:25;;;;;;;12.82;10.90;;;13.40;87.10;;;13.67;65.71;98132.84;5025485;28;20053;-36
2021/08/25 03:47:53;;;;;;;13.95;11.27;;;13.40;87.00;;;13.66;65.79;98128.50;5025775;28;20262;-36
2021/08/25 03:50:21;;;;;;;15.18;12.13;;;13.30;87.10;;;13.63;65.96;98119.97;5025714;28;20049;-36
2021/08/25 03:52:49;;;;;;;13.75;10.75;;;13.30;87.40;;;13.59;66.09;98120.31;5025675;28;20251;-36
2021/08/25 03:55:18;;;;;;;18.23;12.27;;;13.30;87.70;;;13.58;66.00;98118.63;5027100;28;20049;-36
2021/08/25 03:57:46;;;;;;;14.13;10.98;;;13.30;87.70;;;13.55;65.98;98112.78;5027037;28;20351;-36
2021/08/25 04:00:14;;;;;;;14.50;10.82;;;13.20;87.60;;;13.54;66.03;98109.28;5025547;28;20473;-36
2021/08/25 04:02:42;;;;;;;12.50;10.30;;;13.20;87.60;;;13.54;66.08;98108.44;5026107;28;20057;-36
2021/08/25 04:05:10;;;;;;;13.50;10.27;;;13.20;87.50;;;13.54;65.97;98111.13;5025205;28;20068;-36
2021/08/25 04:07:38;;;;;;;13.07;10.48;;;13.20;87.30;;;13.51;65.79;98112.31;5022810;28;20255;-36
2021/08/25 04:10:07;;;;;;;14.02;11.23;;;13.20;86.90;;;13.45;65.91;98106.78;5025059;28;20049;-36
2021/08/25 04:12:34;;;;;;;14.52;10.93;;;13.10;87.50;;;13.44;65.80;98113.16;5024732;28;20053;-36
2021/08/25 04:15:05;;;;;;;14.88;11.40;;;13.10;87.60;;;13.43;65.93;98106.94;5027346;28;20058;-36
2021/08/25 04:17:33;;;;;;;13.45;10.20;;;13.10;87.50;;;13.42;66.05;98109.81;5025690;28;20053;-36
2021/08/25 04:20:01;;;;;;;14.88;11.02;;;13.10;87.30;;;13.42;65.89;98109.81;5024622;28;20061;-36
2021/08/25 04:22:28;;;;;;;14.02;10.85;;;13.10;87.30;;;13.41;65.93;98118.81;5025746;28;20382;-36
2021/08/25 04:24:56;;;;;;;13.80;11.07;;;13.10;87.30;;;13.38;65.97;98118.16;5026038;28;20071;-36
2021/08/25 04:27:24;;;;;;;17.10;11.60;;;13.10;87.20;;;13.35;66.23;98120.31;5023599;28;20057;-36
2021/08/25 04:29:52;;;;;;;16.05;12.02;;;13.00;87.60;;;13.32;66.34;98120.66;5025223;28;20057;-36
2021/08/25 04:32:20;;;;;;;15.60;10.88;;;13.00;87.90;;;13.32;66.16;98121.50;5025996;28;20385;-36
2021/08/25 04:34:48;;;;;;;14.35;10.25;;;13.10;87.90;;;13.33;66.06;98123.16;5026165;28;20462;-36
2021/08/25 04:37:15;;;;;;;12.45;10.43;;;13.00;87.50;;;13.35;66.11;98120.31;5025475;28;20366;-36
2021/08/25 04:39:43;;;;;;;12.90;10.02;;;13.10;87.40;;;13.32;66.16;98124.16;5025560;28;20069;-36
2021/08/25 04:42:11;;;;;;;15.82;10.60;;;13.00;87.20;;;13.32;65.87;98120.66;5024953;28;20049;-36
2021/08/25 04:44:39;;;;;;;13.80;10.85;;;13.00;87.00;;;13.30;66.08;98120.84;5025672;28;20049;-36
2021/08/25 04:47:07;;;;;;;15.80;11.68;;;13.00;87.30;;;13.30;66.18;98122.66;5025032;28;20071;-36
2021/08/25 04:49:35;;;;;;;15.20;11.25;;;13.00;87.60;;;13.30;66.01;98120.84;5024263;28;20045;-36
2021/08/25 04:52:03;;;;;;;15.82;12.15;;;13.00;87.40;;;13.30;66.11;98122.66;5023645;28;20080;-36
2021/08/25 04:54:31;;;;;;;16.23;11.20;;;13.00;87.40;;;13.31;66.20;98122.47;5025813;28;20061;-36
2021/08/25 04:56:59;;;;;;;15.32;10.90;;;13.10;87.50;;;13.31;66.10;98127.84;5026086;28;20075;-36
2021/08/25 04:59:27;;;;;;;14.35;11.18;;;13.00;87.20;;;13.32;66.09;98128.69;5024815;28;20053;-36
2021/08/25 05:01:54;;;;;;;14.13;10.43;;;13.00;87.00;;;13.31;66.03;98127.84;5025104;28;20059;-36
2021/08/25 05:04:22;;;;;;;16.42;11.63;;;13.00;87.00;;;13.30;66.14;98125.31;5024707;28;20053;-36
2021/08/25 05:06:50;;;;;;;13.35;10.25;;;13.00;87.20;;;13.31;66.19;98127.84;5025408;28;20598;-36
2021/08/25 05:09:18;;;;;;;15.77;12.40;;;13.00;87.40;;;13.31;66.27;98127.84;5024092;28;20136;-36
2021/08/25 05:11:46;;;;;;;15.23;11.52;;;13.00;87.50;;;13.32;66.29;98123.34;5026019;28;20064;-36
2021/08/25 05:14:14;;;;;;;13.43;10.07;;;13.10;87.80;;;13.31;66.46;98130.50;5024748;28;20057;-36
2021/08/25 05:16:42;;;;;;;14.73;12.07;;;13.10;87.90;;;13.31;66.74;98127.84;5040038;28;20423;-36
2021/08/25 05:19:09;;;;;;;15.45;11.70;;;13.00;87.90;;;13.31;66.75;98137.69;5024941;28;20051;-36
2021/08/25 05:21:37;;;;;;;16.25;11.52;;;13.10;88.40;;;13.32;66.71;98129.53;5043811;28;20236;-36
2021/08/25 05:24:05;;;;;;;13.02;10.20;;;13.10;88.60;;;13.35;66.78;98131.00;5028407;28;20049;-36
2021/08/25 05:26:33;;;;;;;13.70;10.57;;;13.20;88.60;;;13.38;67.05;98131.53;5029517;28;20072;-36
2021/08/25 05:29:01;;;;;;;13.68;11.10;;;13.20;88.70;;;13.41;67.16;98137.53;5028170;28;20053;-36
2021/08/25 05:31:29;;;;;;;16.38;11.95;;;13.20;88.90;;;13.43;67.26;98136.34;5028271;28;20071;-36
2021/08/25 05:33:57;;;;;;;15.35;11.82;;;13.20;88.80;;;13.44;67.05;98139.88;5028413;28;20057;-36
2021/08/25 05:36:25;;;;;;;15.27;12.38;;;13.20;89.10;;;13.47;67.24;98139.53;5028349;28;20221;-36
2021/08/25 05:38:53;;;;;;;14.73;10.75;;;13.30;89.30;;;13.51;67.42;98148.91;5027448;28;20049;-36
2021/08/25 05:41:20;;;;;;;13.73;11.77;;;13.30;89.30;;;13.52;67.44;98142.56;5027700;28;20061;-36
2021/08/25 05:43:48;;;;;;;14.27;11.95;;;13.40;89.40;;;13.55;67.45;98137.72;5028048;28;20164;-36
2021/08/25 05:46:16;;;;;;;15.38;12.43;;;13.40;89.40;;;13.59;67.57;98146.25;5028370;28;20060;-36
2021/08/25 05:48:44;;;;;;;15.32;11.85;;;13.40;89.60;;;13.62;67.76;98140.53;5028082;28;20045;-36
2021/08/25 05:51:12;;;;;;;14.30;11.38;;;13.50;89.80;;;13.66;67.76;98141.88;5027493;28;20061;-36
2021/08/25 05:53:40;;;;;;;15.27;11.98;;;13.50;89.60;;;13.67;67.79;98135.53;5026388;28;20375;-36
2021/08/25 05:56:12;;;;;;;18.20;12.63;;;13.60;89.70;;;13.71;67.73;98139.53;5028161;28;20061;-36
2021/08/25 05:58:42;;;;;;;14.85;12.27;;;13.60;89.70;;;13.75;67.81;98148.06;5029465;28;20417;-36
2021/08/25 06:01:14;;;;;;;17.52;12.93;;;13.60;89.80;;;13.77;67.95;98141.53;5027017;28;20072;-36
2021/08/25 06:03:42;;;;;;;17.63;11.48;;;13.70;90.00;;;13.81;67.81;98139.34;5028695;28;20049;-37
2021/08/25 06:06:12;;;;;;;16.15;12.07;;;13.70;89.80;;;13.85;67.98;98132.66;5028296;28;20053;-36
2021/08/25 06:08:40;;;;;;;15.93;11.70;;;13.70;89.70;;;13.87;67.98;98135.97;5028093;28;20499;-36
2021/08/25 06:11:08;;;;;;;16.42;11.50;;;13.70;89.90;;;13.89;68.05;98141.19;5027118;28;20087;-36
2021/08/25 06:13:39;;;;;;;15.85;11.98;;;13.80;90.00;;;13.90;68.03;98141.00;5027300;28;20049;-36
2021/08/25 06:16:08;;;;;;;14.00;11.38;;;13.80;89.90;;;13.95;68.07;98141.31;5027880;28;20057;-36
2021/08/25 06:18:36;;;;;;;12.55;11.07;;;13.80;89.80;;;13.97;68.07;98135.81;5027801;28;20045;-36
2021/08/25 06:21:04;;;;;;;13.45;10.82;;;13.90;89.90;;;14.01;68.17;98138.97;5027253;28;20146;-36
2021/08/25 06:23:31;;;;;;;16.75;12.32;;;13.90;89.80;;;14.03;68.11;98135.09;5028378;28;20051;-37
2021/08/25 06:25:59;;;;;;;17.00;11.82;;;13.90;90.00;;;14.06;68.25;98133.94;5026907;28;20061;-36
2021/08/25 06:28:27;;;;;;;13.43;10.85;;;14.00;89.70;;;14.11;68.13;98129.75;5027494;28;20156;-36
2021/08/25 06:30:55;;;;;;;14.88;12.20;;;14.00;89.60;;;14.13;68.16;98127.75;5026756;28;20050;-37
2021/08/25 06:33:23;;;;;;;14.05;11.52;;;14.10;89.50;;;14.14;68.18;98134.75;5027098;28;20049;-37
2021/08/25 06:35:51;;;;;;;15.68;11.20;;;14.10;89.60;;;14.18;68.12;98130.72;5027844;28;20050;-36
2021/08/25 06:38:18;;;;;;;15.30;12.07;;;14.10;89.70;;;14.20;68.30;98129.72;5025856;28;20577;-36
2021/08/25 06:40:46;;;;;;;14.65;11.13;;;14.10;89.70;;;14.23;67.96;98134.72;5027217;28;20333;-36
2021/08/25 06:43:14;;;;;;;16.23;12.55;;;14.20;89.80;;;14.24;68.29;98128.38;5025054;28;20107;-36
2021/08/25 06:45:42;;;;;;;18.33;11.32;;;14.20;89.90;;;14.28;68.41;98133.19;5027081;28;20233;-36
2021/08/25 06:48:10;;;;;;;17.27;13.82;;;14.20;89.70;;;14.34;68.35;98129.00;5007480;28;20084;-37
2021/08/25 06:50:38;;;;;;;16.45;11.27;;;14.30;89.60;;;14.36;68.09;98130.50;5007662;28;20445;-36
2021/08/25 06:53:05;;;;;;;17.88;12.52;;;14.30;89.40;;;14.37;68.57;98134.84;5007122;28;20057;-36
2021/08/25 06:55:33;;;;;;;13.07;11.00;;;14.40;89.50;;;14.41;68.30;98137.19;5007139;28;20061;-37
2021/08/25 06:58:01;;;;;;;13.65;11.75;;;14.50;89.40;;;14.42;68.38;98131.63;5006731;28;20378;-36
2021/08/25 07:00:29;;;;;;;15.63;11.07;;;14.50;89.20;;;14.45;68.41;98133.97;5007267;28;20054;-37
2021/08/25 07:02:57;;;;;;;12.85;10.25;;;14.50;89.00;;;14.51;68.36;98133.28;5007950;28;20052;-37
2021/08/25 07:05:25;;;;;;;15.52;10.77;;;14.60;88.90;;;14.54;68.32;98130.25;5005312;28;20378;-37
2021/08/25 07:07:53;;;;;;;19.10;11.73;;;14.60;88.80;;;14.57;68.17;98126.41;5005879;28;20054;-37
2021/08/25 07:10:22;;;;;;;14.23;10.77;;;14.60;88.50;;;14.58;68.29;98125.41;5007183;28;20050;-37
2021/08/25 07:12:50;;;;;;;16.25;11.75;;;14.60;88.70;;;14.61;68.32;98121.53;5005506;28;20065;-37
2021/08/25 07:15:19;;;;;;;16.05;11.75;;;14.60;88.80;;;14.64;68.19;98115.84;5007394;28;20364;-37
2021/08/25 07:17:47;;;;;;;18.65;11.43;;;14.60;89.00;;;14.65;68.26;98118.34;5006506;28;20064;-37
2021/08/25 07:20:15;;;;;;;17.75;11.50;;;14.70;89.00;;;14.68;68.18;98117.16;5006634;28;20045;-37
2021/08/25 07:22:43;;;;;;;14.77;11.20;;;14.70;88.90;;;14.69;68.25;98125.00;5006669;28;20338;-37
2021/08/25 07:25:11;;;;;;;15.18;10.45;;;14.70;88.70;;;14.71;68.20;98124.84;5006882;28;20064;-37
2021/08/25 07:27:40;;;;;;;13.43;11.48;;;14.80;88.60;;;14.73;68.03;98118.31;5005119;28;20050;-37
2021/08/25 07:30:11;;;;;;;17.60;12.32;;;14.70;88.40;;;14.75;68.14;98123.47;4995887;28;20042;-37
2021/08/25 07:32:41;;;;;;;12.68;10.23;;;14.70;88.60;;;14.76;68.17;98119.78;5003061;28;20045;-37
2021/08/25 07:35:12;;;;;;;14.48;11.57;;;14.70;88.80;;;14.79;68.29;98111.38;5002037;28;20076;-37
2021/08/25 07:37:44;;;;;;;12.00;10.43;;;14.80;89.10;;;14.85;68.20;98117.88;5000198;28;20054;-37
2021/08/25 07:40:18;;;;;;;14.73;11.27;;;14.80;88.80;;;14.86;68.14;98120.41;4987712;28;20367;-37
2021/08/25 07:42:46;;;;;;;14.23;11.25;;;14.90;88.60;;;14.83;68.25;98117.22;5020437;28;20053;-38
2021/08/25 07:45:17;;;;;;;14.70;11.43;;;14.80;88.40;;;14.87;68.17;98123.91;5005050;28;20077;-38
2021/08/25 07:47:47;;;;;;;13.77;10.70;;;14.90;89.20;;;14.91;68.54;98128.75;5005416;28;20045;-37
2021/08/25 07:50:18;;;;;;;15.70;10.73;;;15.00;89.40;;;14.98;68.65;98125.34;5003293;28;20064;-37
2021/08/25 07:52:46;;;;;;;12.68;10.93;;;15.10;89.30;;;15.01;68.26;98120.47;5035380;28;20050;-37
2021/08/25 07:55:15;;;;;;;15.88;11.02;;;15.10;88.70;;;15.05;68.33;98119.09;5004241;28;20352;-37
2021/08/25 07:57:43;;;;;;;12.95;10.75;;;15.10;89.10;;;15.12;68.55;98127.25;5006201;28;20057;-37
2021/08/25 08:00:13;;;;;;;14.75;11.50;;;15.20;89.00;;;15.20;68.62;98127.22;5000270;28;20260;-37
2021/08/25 08:02:43;;;;;;;14.55;11.27;;;15.30;88.90;;;15.28;68.48;98129.00;5019179;28;20038;-37
2021/08/25 08:05:15;;;;;;;11.73;9.60;;;15.40;88.60;;;15.29;68.44;98125.28;5001134;28;20057;-37
2021/08/25 08:07:46;;;;;;;13.20;10.68;;;15.40;88.70;;;15.29;68.31;98111.88;5002937;28;20044;-37
2021/08/25 08:10:15;;;;;;;13.10;10.00;;;15.40;88.00;;;15.22;68.11;98129.69;5004136;28;20048;-37
2021/08/25 08:12:43;;;;;;;13.57;10.75;;;15.30;88.20;;;15.19;68.04;98127.41;5005565;28;20368;-37
2021/08/25 08:15:12;;;;;;;14.73;11.90;;;15.20;88.70;;;15.19;68.04;98119.34;5003713;28;20046;-37
2021/08/25 08:17:45;;;;;;;14.50;11.27;;;15.20;88.80;;;15.23;68.42;98112.59;5019524;28;20062;-37
2021/08/25 08:20:15;;;;;;;13.45;10.02;;;15.20;89.10;;;15.32;68.39;98114.22;5000608;28;20056;-37
2021/08/25 08:22:43;;;;;;;10.38;8.90;;;15.40;88.90;;;15.37;68.19;98117.19;4999423;28;20042;-37
2021/08/25 08:25:11;;;;;;;14.23;9.40;;;15.50;88.20;;;15.45;68.02;98113.59;5006538;28;20054;-37
2021/08/25 08:27:39;;;;;;;9.93;8.65;;;15.60;87.60;;;15.54;67.84;98113.34;5004713;28;20064;-37
2021/08/25 08:30:08;;;;;;;12.70;9.50;;;15.70;87.50;;;15.60;67.75;98110.97;5003500;28;20076;-37
2021/08/25 08:32:36;;;;;;;13.23;10.10;;;15.80;87.30;;;15.67;67.67;98107.38;5002906;28;20345;-37
2021/08/25 08:35:04;;;;;;;10.55;9.45;;;15.80;87.10;;;15.68;67.43;98106.38;5004647;28;20265;-37
2021/08/25 08:37:32;;;;;;;14.98;10.68;;;15.80;86.40;;;15.71;67.66;98103.28;5003594;28;20069;-37
2021/08/25 08:40:00;;;;;;;13.35;10.10;;;15.90;87.20;;;15.77;67.62;98109.81;5003818;28;20061;-37
2021/08/25 08:42:34;;;;;;;12.43;10.07;;;15.90;87.30;;;15.81;67.60;98108.44;5005036;28;20323;-37
2021/08/25 08:45:04;;;;;;;14.70;10.82;;;16.00;86.80;;;15.89;67.60;98115.56;5004444;28;20065;-37
2021/08/25 08:47:32;;;;;;;9.07;8.02;;;16.10;86.70;;;15.90;67.27;98106.50;5004550;28;20252;-37
2021/08/25 08:50:01;;;;;;;11.52;8.50;;;16.10;86.10;;;15.94;67.20;98111.31;5004598;28;20049;-37
2021/08/25 08:52:29;;;;;;;7.95;6.72;;;16.20;86.00;;;16.02;67.09;98106.88;5003824;28;20056;-37
2021/08/25 08:54:57;;;;;;;13.50;9.10;;;16.20;85.80;;;16.11;66.87;98106.59;5002522;28;20041;-36
2021/08/25 08:57:26;;;;;;;11.60;8.23;;;16.30;85.70;;;16.18;66.82;98101.31;5002724;28;20065;-36
2021/08/25 08:59:53;;;;;;;9.00;8.05;;;16.40;85.30;;;16.25;66.60;98102.25;5015480;28;20046;-36
2021/08/25 09:02:46;;;;;;;9.38;7.93;;;16.50;84.70;;;16.27;66.08;98099.38;5018523;28;20344;-37
2021/08/25 09:05:25;;;;;;;10.77;8.27;;;16.60;83.80;;;16.32;66.71;98099.63;5018511;28;20049;-36
2021/08/25 09:08:03;;;;;;;7.95;7.15;;;16.50;84.50;;;16.42;66.13;98102.03;5019275;28;20264;-37
2021/08/25 09:10:37;;;;;;;12.52;7.53;;;16.70;84.00;;;16.49;66.04;98101.09;5016579;28;20061;-37
2021/08/25 09:13:12;;;;;;;10.90;8.27;;;16.80;83.80;;;16.54;66.38;98098.69;5017678;28;20058;-37
2021/08/25 09:15:43;;;;;;;9.85;7.70;;;16.80;83.70;;;16.62;65.84;98096.94;5019256;28;20049;-37
2021/08/25 09:18:15;;;;;;;10.00;7.63;;;16.80;83.40;;;16.63;64.68;98093.19;5018490;28;20050;-37
2021/08/25 09:20:48;;;;;;;14.57;8.15;;;16.90;82.10;;;16.68;64.49;98096.16;5018966;28;20064;-37
2021/08/25 09:23:22;;;;;;;8.00;7.10;;;16.90;82.20;;;16.74;65.08;98096.22;5018479;28;20054;-37
2021/08/25 09:26:01;;;;;;;10.13;7.72;;;17.00;82.10;;;16.77;63.71;98092.34;5019359;28;20281;-36
2021/08/25 09:28:33;;;;;;;9.70;7.68;;;17.00;81.30;;;16.86;64.57;98096.59;5016093;28;20233;-36
2021/08/25 09:31:13;;;;;;;9.60;7.47;;;17.10;81.70;;;16.90;64.08;98095.22;5019519;28;20054;-36
2021/08/25 09:33:48;;;;;;;11.20;8.02;;;17.20;80.70;;;16.95;64.38;98096.50;5019510;28;20060;-36
2021/08/25 09:36:21;;;;;;;8.80;7.68;;;17.20;81.20;;;17.00;64.05;98088.66;5015986;28;20064;-37
2021/08/25 09:38:58;;;;;;;7.13;6.18;;;17.20;81.20;;;17.05;64.49;98091.63;5019562;28;20061;-37
2021/08/25 09:41:26;;;;;;;7.65;6.35;;;17.30;80.80;;;17.08;63.64;98093.94;5018153;28;20054;-36
2021/08/25 09:43:53;;;;;;;10.85;7.20;;;17.30;80.40;;;17.15;63.39;98094.81;5017102;28;20243;-37
2021/08/25 09:46:26;;;;;;;6.70;5.55;;;17.40;79.90;;;17.21;62.83;98083.28;5018308;28;20056;-36
2021/08/25 09:48:57;;;;;;;7.82;6.60;;;17.50;79.10;;;17.27;62.87;98090.59;5013745;28;20453;-36
2021/08/25 09:51:39;;;;;;;9.20;5.93;;;17.50;79.00;;;17.34;62.94;98071.81;5008811;28;20046;-36
2021/08/25 09:54:15;;;;;;;11.02;6.03;;;17.60;76.90;;;17.36;62.43;98075.16;5006015;28;20080;-37
2021/08/25 09:56:44;;;;;;;7.75;6.47;;;17.60;78.80;;;17.35;61.49;98070.81;5006978;28;20050;-37
2021/08/25 09:59:14;;;;;;;7.78;6.18;;;17.60;77.60;;;17.42;61.55;98065.47;5004108;28;20111;-37
2021/08/25 10:01:43;;;;;;;6.93;5.85;;;17.70;77.70;;;17.48;61.50;98065.50;5003409;28;20339;-36
2021/08/25 10:04:14;;;;;;;8.25;5.97;;;17.80;77.50;;;17.56;61.78;98064.53;5002965;28;20077;-37
2021/08/25 10:06:46;;;;;;;7.63;6.10;;;17.80;77.40;;;17.60;61.59;98063.13;5009150;28;20260;-37
2021/08/25 10:09:16;;;;;;;7.82;6.32;;;17.90;77.40;;;17.70;61.80;98057.41;5006846;28;20058;-37
2021/08/25 10:11:56;;;;;;;6.75;5.20;;;18.00;78.60;;;17.77;61.49;98063.66;5004707;28;20058;-37
2021/08/25 10:14:31;;;;;;;7.18;5.50;;;18.10;75.60;;;17.87;61.23;98069.56;5008148;28;20081;-37
2021/08/25 10:16:59;;;;;;;7.68;4.90;;;18.20;75.70;;;17.93;59.99;98064.41;5006391;28;20064;-37